Palmdale, CA

2:34 PM PDT on October 20, 2014 (GMT -0700)
RAWS LAKE PALMDALE CA US | Change Station
CLOSE
Current Station
Personal Weather Station
Location: Palmdale, CA
Elevation: 2979 ft
Nearby Weather Stations

Elev 2979 ft 34.54 °N, 118.10 °W | Updated 39 minutes ago

Clear
Clear
83 °F
Feels Like 81 °F
N
21
Wind Variable Wind from WSW
Gusts 30.0 mph

Today
High -- | Low -- °F
--% Chance of Precip.
Yesterday
High -- | Low -- °F
Precip. -- in
7:02 AM 6:11 PM
Waning Crescent, 9% visible
Pressure 29.84 in
Visibility 10.0 miles
Clouds Clear
Heat Index 81 °F
Dew Point 40 °F
Humidity 22%
Rainfall 0.00 in
Snow Depth Not available.
UV 6 out of 12
Pollen 3.50 out of 12
Ozone Good
Flu Activity Sporadic
METAR KPMD 202053Z 25021KT 10SM CLR 28/03 A2991 RMK AO2 PK WND 26026/2016 SLP103 T02830033 56019

More Conditions Fewer Conditions

Pressure 29.84 in
Visibility 10.0 miles
Clouds Clear
Heat Index 81 °F
Dew Point 40 °F
Humidity 22%
Rainfall 0.00 in
Snow Depth Not available.
UV 6 out of 12
Pollen 3.50 out of 12
Ozone Good
Flu Activity Sporadic
METAR KPMD 202053Z 25021KT 10SM CLR 28/03 A2991 RMK AO2 PK WND 26026/2016 SLP103 T02830033 56019

More Conditions Fewer Conditions

10-Day Weather Forecast

Almanac

Astronomy

Oct. 20, 2014 Rise Set
Actual Time 7:02 AM PDT 6:11 PM PDT
Civil Twilight 6:36 AM PDT 6:37 PM PDT
Nautical Twilight 6:07 AM PDT 7:06 PM PDT
Astronomical Twilight 5:38 AM PDT 7:35 PM PDT
Moon 4:02 AM PDT 4:30 PM PDT
Length of Visible Light 12h 00m
Length of Day
11h 09m
Waning Crescent, 9% of the Moon is Illuminated
Today
Waning Crescent
Oct 23
New
Oct 30
First Quarter
Nov 6
Full
Nov 14
Last Quarter

Today's Extremes

State Highs State Lows

Community

WunderPhotos

Upload Photos

1,763,525 photos uploaded!

WunderBlogs® & News

Nearby

Air Quality

  Air Quality AQ Index Pollutant
Yesterday Moderate
OZONE
Yesterday Good
PM10
Current Good
OZONE
Tuesday Good
PM10
Tuesday Good
OZONE
Tuesday Good
CO
Tuesday Good
NO2

Snow Depth

Station Depth Elevation
Leavitt Meadows 0 in 7200 ft
Sonora Pass 0 in 8800 ft
Summit Meadow 0 in 9122 ft
Monitor Pass 0 in 8350 ft
Blue Lakes 0 in 8000 ft

Earthquake Activity

City Distance Mag. Time & Date
Lone Pine, California 117 miles 2.6 5:26 AM PDT
2014-10-19
Fort Irwin, California 97 miles 3.1 6:03 AM PDT
2014-10-17
Minimum magnitude displayed is 2.5.

Coastal Water Temperatures

Place Temperature
No Stations Reporting

Nearby Weather Stations